createdAt,value
2018-07-27T00:01:48.688Z,5.50
2018-07-27T00:04:19.425Z,5.53
2018-07-27T00:06:50.825Z,5.33
2018-07-27T00:09:21.502Z,5.20
2018-07-27T00:11:51.542Z,5.80
2018-07-27T00:14:21.603Z,5.33
2018-07-27T00:16:52.123Z,6.10
2018-07-27T00:19:22.827Z,5.80
2018-07-27T00:21:53.323Z,6.10
2018-07-27T00:24:24.233Z,6.40
2018-07-27T00:26:56.407Z,7.90
2018-07-27T00:29:27.162Z,8.40
2018-07-27T00:31:57.639Z,8.87
2018-07-27T00:34:28.301Z,9.50
2018-07-27T00:36:58.757Z,9.60
2018-07-27T00:39:29.280Z,9.70
2018-07-27T00:41:59.929Z,10.93
2018-07-27T00:44:31.061Z,10.77
2018-07-27T00:47:02.245Z,11.33
2018-07-27T00:49:33.025Z,14.83
2018-07-27T00:52:03.646Z,12.23
2018-07-27T00:54:34.114Z,10.60
2018-07-27T00:57:04.856Z,9.50
2018-07-27T00:59:35.521Z,8.37
2018-07-27T01:02:06.262Z,8.50
2018-07-27T01:04:36.935Z,7.87
2018-07-27T01:07:08.136Z,8.37
2018-07-27T01:09:38.201Z,8.07
2018-07-27T01:12:08.947Z,7.60
2018-07-27T01:14:39.564Z,7.83
2018-07-27T01:17:11.165Z,8.43
2018-07-27T01:19:41.855Z,8.47
2018-07-27T01:22:12.496Z,8.53
2018-07-27T01:24:42.986Z,6.30
2018-07-27T01:27:13.490Z,6.10
2018-07-27T01:29:44.239Z,6.10
2018-07-27T01:32:14.750Z,5.40
2018-07-27T01:34:45.740Z,6.93
2018-07-27T01:37:16.959Z,7.97
2018-07-27T01:39:47.389Z,8.47
2018-07-27T01:42:18.073Z,8.53
2018-07-27T01:44:48.078Z,9.90
2018-07-27T01:47:18.599Z,9.00
2018-07-27T01:49:49.099Z,9.53
2018-07-27T01:52:19.928Z,9.40
2018-07-27T01:54:50.553Z,9.50
2018-07-27T01:57:21.119Z,9.70
2018-07-27T01:59:51.546Z,10.07
2018-07-27T02:02:22.157Z,5.80
2018-07-27T02:04:53.157Z,6.27
2018-07-27T02:07:25.279Z,6.27
2018-07-27T02:09:55.999Z,5.73
2018-07-27T02:12:26.590Z,8.13
2018-07-27T02:14:57.163Z,8.13
2018-07-27T02:17:27.660Z,8.33
2018-07-27T02:19:58.246Z,8.30
2018-07-27T02:22:28.697Z,8.37
2018-07-27T02:24:58.662Z,9.27
2018-07-27T02:27:29.231Z,8.47
2018-07-27T02:29:59.822Z,8.37
2018-07-27T02:32:30.547Z,8.77
2018-07-27T02:35:02.302Z,8.27
2018-07-27T02:37:32.874Z,9.00
2018-07-27T02:40:03.905Z,9.23
2018-07-27T02:42:34.480Z,9.30
2018-07-27T02:45:05.181Z,9.10
2018-07-27T02:47:35.771Z,9.33
2018-07-27T02:50:06.877Z,8.80
2018-07-27T02:52:37.360Z,8.07
2018-07-27T02:55:07.858Z,8.43
2018-07-27T02:57:38.372Z,8.60
2018-07-27T03:00:10.049Z,7.80
2018-07-27T03:02:41.251Z,8.07
2018-07-27T03:05:11.726Z,8.30
2018-07-27T03:07:42.296Z,8.17
2018-07-27T03:10:12.694Z,8.57
2018-07-27T03:12:43.319Z,7.93
2018-07-27T03:15:13.910Z,8.57
2018-07-27T03:17:44.378Z,8.60
2018-07-27T03:20:15.260Z,6.93
2018-07-27T03:22:45.820Z,7.10
2018-07-27T03:25:16.261Z,8.50
2018-07-27T03:27:47.360Z,8.30
2018-07-27T03:30:18.684Z,8.60
2018-07-27T03:32:49.269Z,8.93
2018-07-27T03:35:20.100Z,9.50
2018-07-27T03:37:50.743Z,9.20
2018-07-27T03:40:21.196Z,9.40
2018-07-27T03:42:51.788Z,9.30
2018-07-27T03:45:22.335Z,9.03
2018-07-27T03:47:54.164Z,9.47
2018-07-27T03:50:25.524Z,9.70
2018-07-27T03:52:56.056Z,9.80
2018-07-27T03:55:26.671Z,9.90
2018-07-27T03:57:57.925Z,9.03
2018-07-27T04:00:28.500Z,9.20
2018-07-27T04:02:59.162Z,9.03
2018-07-27T04:05:30.037Z,8.40
2018-07-27T04:08:00.617Z,8.50
2018-07-27T04:10:31.079Z,8.57
2018-07-27T04:13:01.836Z,8.30
2018-07-27T04:15:33.877Z,9.17
2018-07-27T04:18:04.439Z,8.10
2018-07-27T04:20:34.991Z,8.60
2018-07-27T04:23:06.178Z,8.40
2018-07-27T04:25:36.860Z,8.40
2018-07-27T04:28:07.722Z,7.70
2018-07-27T04:30:39.011Z,7.50
2018-07-27T04:33:09.658Z,7.00
2018-07-27T04:35:40.287Z,6.23
2018-07-27T04:38:10.698Z,6.30
2018-07-27T04:40:41.631Z,6.03
2018-07-27T04:43:12.812Z,5.03
2018-07-27T04:45:43.419Z,7.90
2018-07-27T04:48:14.127Z,8.53
2018-07-27T04:50:44.715Z,8.17
2018-07-27T04:53:15.401Z,7.83
2018-07-27T04:55:45.992Z,8.87
2018-07-27T04:58:16.544Z,7.90
2018-07-27T05:00:48.318Z,8.60
2018-07-27T05:03:19.542Z,7.53
2018-07-27T05:05:49.968Z,9.00
2018-07-27T05:08:21.530Z,8.90
2018-07-27T05:10:51.953Z,8.27
2018-07-27T05:13:22.586Z,7.63
2018-07-27T05:15:53.168Z,8.07
2018-07-27T05:18:24.006Z,8.40
2018-07-27T05:20:56.119Z,9.13
2018-07-27T05:23:28.027Z,8.57
2018-07-27T05:25:59.613Z,8.67
2018-07-27T05:28:31.163Z,9.47
2018-07-27T05:31:02.658Z,9.33
2018-07-27T05:33:33.420Z,10.47
2018-07-27T05:36:04.530Z,10.63
2018-07-27T05:38:35.245Z,11.10
2018-07-27T05:41:06.330Z,13.50
2018-07-27T05:43:36.992Z,11.47
2018-07-27T05:46:08.591Z,10.90
2018-07-27T05:48:40.095Z,10.80
2018-07-27T05:51:11.133Z,10.93
2018-07-27T05:53:43.434Z,10.20
2018-07-27T05:56:14.811Z,10.00
2018-07-27T05:58:47.151Z,10.07
2018-07-27T06:01:17.883Z,10.40
2018-07-27T06:03:48.828Z,10.10
2018-07-27T06:06:18.965Z,10.23
2018-07-27T06:08:50.608Z,10.30
2018-07-27T06:11:22.059Z,10.77
2018-07-27T06:13:52.817Z,11.30
2018-07-27T06:16:23.633Z,9.97
2018-07-27T06:18:55.051Z,11.27
2018-07-27T06:21:25.928Z,9.70
2018-07-27T06:23:56.628Z,10.23
2018-07-27T06:26:27.769Z,10.33
2018-07-27T06:28:58.091Z,10.60
2018-07-27T06:31:29.448Z,9.80
2018-07-27T06:34:00.189Z,9.73
2018-07-27T06:36:31.069Z,9.83
2018-07-27T06:39:01.722Z,8.90
2018-07-27T06:41:32.945Z,9.70
2018-07-27T06:44:04.764Z,9.13
2018-07-27T06:46:35.526Z,9.10
2018-07-27T06:49:06.249Z,9.13
2018-07-27T06:51:37.103Z,8.63
2018-07-27T06:54:07.835Z,8.30
2018-07-27T06:56:38.677Z,8.80
2018-07-27T06:59:09.447Z,7.90
2018-07-27T07:01:40.267Z,8.27
2018-07-27T07:04:11.693Z,7.90
2018-07-27T07:06:43.120Z,7.73
2018-07-27T07:09:14.000Z,7.97
2018-07-27T07:11:44.713Z,7.40
2018-07-27T07:14:16.882Z,7.73
2018-07-27T07:16:49.305Z,7.83
2018-07-27T07:19:20.122Z,7.90
2018-07-27T07:21:50.868Z,7.90
2018-07-27T07:24:22.605Z,7.47
2018-07-27T07:26:54.796Z,6.33
2018-07-27T07:29:26.296Z,6.83
2018-07-27T07:31:57.420Z,6.67
2018-07-27T07:34:28.229Z,6.20
2018-07-27T07:36:59.117Z,5.30
2018-07-27T07:39:30.058Z,5.43
2018-07-27T07:42:00.965Z,4.63
2018-07-27T07:44:32.015Z,5.10
2018-07-27T07:47:04.816Z,4.90
2018-07-27T07:49:35.473Z,4.83
2018-07-27T07:52:06.383Z,4.57
2018-07-27T07:54:37.050Z,4.97
2018-07-27T07:57:07.333Z,4.60
2018-07-27T07:59:38.837Z,4.70
2018-07-27T08:02:09.969Z,4.03
2018-07-27T08:04:41.563Z,4.30
2018-07-27T08:07:12.452Z,3.87
2018-07-27T08:09:43.135Z,4.20
2018-07-27T08:12:13.844Z,4.10
2018-07-27T08:14:43.947Z,4.43
2018-07-27T08:17:14.660Z,4.13
2018-07-27T08:19:45.453Z,3.50
2018-07-27T08:22:16.594Z,2.80
2018-07-27T08:24:48.428Z,3.30
2018-07-27T08:27:19.232Z,3.60
2018-07-27T08:29:50.347Z,3.50
2018-07-27T08:32:20.646Z,3.50
2018-07-27T08:34:52.916Z,3.30
2018-07-27T08:37:24.768Z,4.20
2018-07-27T08:39:55.469Z,3.50
2018-07-27T08:42:27.031Z,4.57
2018-07-27T08:44:59.261Z,3.83
2018-07-27T08:47:30.433Z,3.80
2018-07-27T08:50:00.772Z,3.37
2018-07-27T08:52:31.826Z,4.27
2018-07-27T08:55:02.785Z,3.60
2018-07-27T08:57:34.402Z,3.30
2018-07-27T09:00:07.209Z,3.50
2018-07-27T09:02:38.338Z,3.20
2018-07-27T09:05:09.641Z,3.10
2018-07-27T09:07:40.654Z,3.20
2018-07-27T09:10:11.465Z,3.30
2018-07-27T09:12:42.034Z,4.35
2018-07-27T09:15:13.387Z,3.20
2018-07-27T09:17:44.275Z,4.00
2018-07-27T09:20:16.246Z,3.25
2018-07-27T09:22:47.132Z,2.83
2018-07-27T09:25:18.673Z,3.02
2018-07-27T09:27:49.327Z,3.15
2018-07-27T09:30:19.532Z,2.98
2018-07-27T09:32:50.368Z,3.02
2018-07-27T09:35:21.126Z,3.20
2018-07-27T09:37:52.727Z,3.37
2018-07-27T09:40:25.285Z,3.22
2018-07-27T09:42:56.229Z,3.60
2018-07-27T09:45:27.030Z,3.02
2018-07-27T09:47:57.959Z,3.40
2018-07-27T09:50:28.777Z,2.92
2018-07-27T09:52:59.099Z,3.20
2018-07-27T09:55:30.051Z,2.90
2018-07-27T09:58:02.200Z,3.02
2018-07-27T10:00:38.753Z,3.15
2018-07-27T10:03:11.629Z,3.45
2018-07-27T10:05:42.787Z,3.30
2018-07-27T10:08:15.003Z,3.12
2018-07-27T10:10:46.315Z,3.72
2018-07-27T10:13:20.169Z,3.33
2018-07-27T10:15:51.064Z,3.10
2018-07-27T10:18:22.181Z,3.33
2018-07-27T10:20:53.420Z,3.37
2018-07-27T10:23:25.262Z,2.98
2018-07-27T10:25:57.166Z,3.00
2018-07-27T10:28:28.796Z,3.50
2018-07-27T10:30:59.839Z,3.50
2018-07-27T10:33:31.125Z,3.47
2018-07-27T10:36:01.865Z,3.00
2018-07-27T10:38:33.272Z,3.30
2018-07-27T10:41:04.010Z,2.90
2018-07-27T10:43:34.715Z,3.02
2018-07-27T10:46:05.970Z,2.85
2018-07-27T10:48:37.765Z,2.70
2018-07-27T10:51:08.898Z,2.70
2018-07-27T10:53:40.237Z,2.83
2018-07-27T10:56:11.624Z,2.55
2018-07-27T10:58:42.605Z,2.95
2018-07-27T11:01:13.802Z,2.60
2018-07-27T11:03:44.602Z,3.10
2018-07-27T11:06:16.538Z,2.90
2018-07-27T11:08:48.196Z,2.58
2018-07-27T11:11:18.912Z,2.50
2018-07-27T11:13:49.707Z,2.58
2018-07-27T11:16:20.487Z,2.92
2018-07-27T11:18:50.584Z,2.60
2018-07-27T11:21:21.251Z,2.67
2018-07-27T11:23:52.046Z,2.50
2018-07-27T11:26:23.896Z,2.60
2018-07-27T11:28:54.992Z,2.45
2018-07-27T11:31:26.694Z,2.67
2018-07-27T11:33:57.452Z,2.50
2018-07-27T11:36:28.290Z,2.70
2018-07-27T11:38:59.008Z,2.62
2018-07-27T11:41:29.725Z,2.47
2018-07-27T11:44:01.503Z,2.27
2018-07-27T11:46:33.100Z,2.67
2018-07-27T11:49:04.252Z,2.62
2018-07-27T11:51:34.954Z,2.65
2018-07-27T11:54:05.888Z,3.00
2018-07-27T11:56:36.102Z,2.30
2018-07-27T11:59:06.808Z,2.52
2018-07-27T12:01:37.631Z,2.60
2018-07-27T12:04:09.156Z,2.77
2018-07-27T12:06:41.402Z,3.30
2018-07-27T12:09:12.987Z,2.60
2018-07-27T12:11:43.935Z,2.50
2018-07-27T12:14:15.480Z,2.35
2018-07-27T12:16:46.392Z,2.50
2018-07-27T12:19:17.445Z,2.52
2018-07-27T12:21:48.618Z,2.70
2018-07-27T12:24:21.744Z,2.60
2018-07-27T12:26:53.141Z,2.42
2018-07-27T12:29:25.092Z,2.80
2018-07-27T12:31:55.949Z,2.50
2018-07-27T12:34:26.786Z,2.50
2018-07-27T12:36:57.824Z,2.05
2018-07-27T12:39:28.588Z,2.37
2018-07-27T12:42:00.418Z,1.98
2018-07-27T12:44:32.033Z,2.60
2018-07-27T12:47:02.920Z,2.42
2018-07-27T12:49:33.973Z,2.08
2018-07-27T12:52:05.360Z,1.90
2018-07-27T12:54:37.001Z,1.95
2018-07-27T12:57:09.468Z,2.05
2018-07-27T12:59:41.041Z,2.10
2018-07-27T13:02:12.643Z,2.12
2018-07-27T13:04:43.853Z,3.40
2018-07-27T13:07:14.833Z,2.20
2018-07-27T13:09:45.235Z,2.00
2018-07-27T13:12:16.187Z,2.50
2018-07-27T13:14:47.765Z,2.20
2018-07-27T13:17:18.614Z,2.35
2018-07-27T13:19:50.234Z,2.42
2018-07-27T13:22:21.852Z,2.40
2018-07-27T13:27:26.325Z,2.20
2018-07-27T13:29:57.154Z,2.37
2018-07-27T13:32:28.235Z,1.98
2018-07-27T13:35:01.007Z,1.82
2018-07-27T13:37:34.523Z,2.10
2018-07-27T13:40:06.733Z,2.05
2018-07-27T13:42:38.221Z,2.02
2018-07-27T13:45:09.237Z,2.12
2018-07-27T13:47:40.489Z,2.17
2018-07-27T13:50:11.939Z,2.17
2018-07-27T13:52:43.790Z,2.12
2018-07-27T13:55:15.417Z,2.30
2018-07-27T13:57:46.253Z,2.25
2018-07-27T14:00:16.944Z,2.25
2018-07-27T14:02:47.602Z,2.22
2018-07-27T14:05:18.786Z,2.17
2018-07-27T14:07:49.529Z,1.92
2018-07-27T14:10:20.222Z,2.17
2018-07-27T14:12:52.155Z,2.33
2018-07-27T14:15:24.367Z,2.27
2018-07-27T14:17:57.018Z,2.30
2018-07-27T14:20:27.894Z,2.40
2018-07-27T14:22:58.774Z,2.30
2018-07-27T14:25:30.715Z,2.40
2018-07-27T14:28:01.802Z,2.40
2018-07-27T14:30:33.771Z,2.23
2018-07-27T14:33:04.700Z,2.37
2018-07-27T14:35:36.458Z,2.53
2018-07-27T14:38:08.135Z,2.33
2018-07-27T14:40:38.740Z,2.10
2018-07-27T14:43:09.870Z,2.07
2018-07-27T14:45:41.510Z,2.20
2018-07-27T14:48:14.392Z,2.37
2018-07-27T14:50:45.363Z,3.00
2018-07-27T14:53:16.077Z,2.40
2018-07-27T14:55:47.143Z,14.63
2018-07-27T14:58:18.660Z,2.77
2018-07-27T15:00:49.171Z,2.23
2018-07-27T15:03:19.990Z,2.37
2018-07-27T15:05:51.272Z,2.30
2018-07-27T15:08:23.202Z,2.50
2018-07-27T15:10:54.559Z,2.60
2018-07-27T15:13:26.875Z,2.43
2018-07-27T15:15:58.051Z,2.40
2018-07-27T15:18:29.245Z,2.30
2018-07-27T15:21:01.576Z,2.30
2018-07-27T15:23:33.467Z,2.43
2018-07-27T15:26:06.106Z,2.20
2018-07-27T15:28:37.146Z,2.73
2018-07-27T15:31:08.151Z,2.63
2018-07-27T15:33:38.806Z,6.87
2018-07-27T15:36:09.348Z,2.90
2018-07-27T15:38:40.303Z,2.50
2018-07-27T15:41:11.528Z,2.43
2018-07-27T15:43:43.401Z,2.57
2018-07-27T15:46:15.359Z,2.87
2018-07-27T15:48:46.521Z,2.70
2018-07-27T15:51:17.217Z,2.87
2018-07-27T15:53:50.922Z,2.50
2018-07-27T15:56:22.311Z,3.20
2018-07-27T15:58:53.694Z,3.10
2018-07-27T16:01:24.819Z,3.37
2018-07-27T16:03:55.758Z,3.50
2018-07-27T16:06:26.510Z,3.73
2018-07-27T16:08:58.123Z,3.90
2018-07-27T16:11:28.756Z,4.33
2018-07-27T16:13:59.596Z,4.60
2018-07-27T16:16:31.003Z,4.50
2018-07-27T16:19:03.204Z,7.17
2018-07-27T16:21:34.782Z,4.87
2018-07-27T16:24:05.588Z,4.93
2018-07-27T16:26:36.239Z,12.30
2018-07-27T16:29:06.897Z,5.30
2018-07-27T16:31:37.731Z,4.93
2018-07-27T16:34:08.775Z,6.47
2018-07-27T16:36:40.095Z,6.27
2018-07-27T16:39:11.936Z,6.97
2018-07-27T16:41:42.774Z,7.40
2018-07-27T16:44:13.573Z,8.57
2018-07-27T16:46:44.371Z,10.83
2018-07-27T16:49:15.280Z,7.50
2018-07-27T16:51:46.720Z,6.90
2018-07-27T16:54:18.462Z,7.40
2018-07-27T16:56:50.206Z,7.33
2018-07-27T16:59:20.900Z,8.47
2018-07-27T17:01:53.412Z,8.03
2018-07-27T17:04:24.557Z,11.03
2018-07-27T17:06:58.908Z,9.57
2018-07-27T17:09:30.865Z,7.53
2018-07-27T17:12:03.204Z,7.73
2018-07-27T17:14:35.636Z,8.90
2018-07-27T17:17:06.900Z,8.60
2018-07-27T17:19:37.788Z,8.00
2018-07-27T17:22:08.810Z,38.37
2018-07-27T17:24:39.685Z,10.37
2018-07-27T17:27:11.773Z,8.80
2018-07-27T17:29:43.874Z,7.03
2018-07-27T17:32:15.639Z,23.43
2018-07-27T17:34:46.329Z,8.83
2018-07-27T17:37:17.275Z,5.50
2018-07-27T17:39:49.189Z,7.33
2018-07-27T17:42:19.802Z,6.47
2018-07-27T17:44:52.767Z,6.00
2018-07-27T17:47:25.963Z,5.80
2018-07-27T17:49:57.593Z,5.50
2018-07-27T17:52:29.130Z,5.43
2018-07-27T17:55:00.387Z,5.60
2018-07-27T17:57:32.559Z,6.07
2018-07-27T18:00:03.533Z,6.50
2018-07-27T18:02:35.728Z,6.67
2018-07-27T18:05:06.904Z,6.23
2018-07-27T18:07:37.654Z,6.60
2018-07-27T18:10:08.851Z,6.90
2018-07-27T18:12:39.974Z,9.07
2018-07-27T18:15:12.265Z,8.83
2018-07-27T18:17:43.398Z,10.23
2018-07-27T18:20:15.275Z,9.73
2018-07-27T18:22:48.869Z,11.97
2018-07-27T18:25:20.524Z,7.67
2018-07-27T18:27:52.655Z,11.30
2018-07-27T18:30:23.959Z,11.13
2018-07-27T18:32:54.515Z,10.00
2018-07-27T18:35:25.829Z,9.47
2018-07-27T18:37:58.692Z,7.53
2018-07-27T18:40:29.563Z,11.03
2018-07-27T18:43:01.267Z,10.63
2018-07-27T18:45:34.743Z,10.33
2018-07-27T18:48:05.546Z,9.70
2018-07-27T18:50:37.107Z,11.90
2018-07-27T18:53:09.446Z,13.27
2018-07-27T18:55:41.069Z,10.10
2018-07-27T18:58:12.034Z,10.30
2018-07-27T19:00:44.099Z,13.80
2018-07-27T19:03:15.921Z,10.23
2018-07-27T19:05:47.018Z,12.07
2018-07-27T19:08:18.591Z,13.00
2018-07-27T19:10:51.315Z,12.63
2018-07-27T19:13:22.263Z,10.70
2018-07-27T19:15:53.954Z,10.33
2018-07-27T19:18:25.352Z,11.87
2018-07-27T19:20:56.164Z,11.93
2018-07-27T19:23:27.195Z,11.00
2018-07-27T19:25:57.904Z,12.27
2018-07-27T19:28:29.748Z,9.30
2018-07-27T19:31:01.626Z,8.80
2018-07-27T19:33:33.720Z,14.43
2018-07-27T19:36:06.143Z,9.87
2018-07-27T19:38:38.388Z,8.83
2018-07-27T19:41:09.302Z,8.00
2018-07-27T19:43:40.915Z,7.30
2018-07-27T19:46:11.807Z,8.30
2018-07-27T19:48:42.903Z,7.73
2018-07-27T19:51:13.341Z,8.50
2018-07-27T19:53:44.205Z,8.07
2018-07-27T19:56:14.907Z,9.13
2018-07-27T19:58:47.946Z,9.10
2018-07-27T20:01:20.606Z,9.10
2018-07-27T20:03:51.738Z,9.00
2018-07-27T20:06:22.521Z,8.90
2018-07-27T20:08:53.307Z,8.93
2018-07-27T20:11:24.669Z,8.40
2018-07-27T20:13:55.633Z,8.47
2018-07-27T20:16:27.068Z,8.77
2018-07-27T20:19:00.872Z,10.67
2018-07-27T20:21:31.725Z,29.17
2018-07-27T20:24:02.394Z,9.40
2018-07-27T20:26:33.135Z,7.87
2018-07-27T20:29:04.212Z,8.67
2018-07-27T20:31:35.822Z,8.43
2018-07-27T20:34:07.054Z,8.07
2018-07-27T20:36:39.872Z,8.47
2018-07-27T20:39:14.514Z,8.30
2018-07-27T20:41:46.534Z,8.40
2018-07-27T20:44:17.935Z,8.70
2018-07-27T20:46:49.169Z,9.07
2018-07-27T20:49:20.550Z,8.67
2018-07-27T20:51:51.383Z,8.27
2018-07-27T20:54:22.160Z,8.50
2018-07-27T20:56:52.862Z,9.07
2018-07-27T20:59:23.598Z,10.30
2018-07-27T21:01:54.647Z,10.37
2018-07-27T21:04:25.282Z,10.43
2018-07-27T21:06:56.566Z,10.17
2018-07-27T21:09:27.639Z,9.70
2018-07-27T21:11:58.416Z,10.33
2018-07-27T21:14:29.369Z,9.13
2018-07-27T21:17:01.060Z,8.33
2018-07-27T21:19:31.842Z,9.27
2018-07-27T21:22:02.827Z,9.63
2018-07-27T21:24:35.879Z,9.30
2018-07-27T21:27:06.634Z,9.77
2018-07-27T21:29:37.340Z,10.07
2018-07-27T21:32:08.733Z,10.40
2018-07-27T21:34:39.826Z,10.10
2018-07-27T21:37:11.615Z,10.40
2018-07-27T21:39:43.972Z,9.43
2018-07-27T21:42:15.116Z,9.47
2018-07-27T21:44:45.991Z,9.77
2018-07-27T21:47:16.800Z,10.10
2018-07-27T21:49:47.820Z,9.90
2018-07-27T21:52:18.510Z,9.43
2018-07-27T21:54:49.927Z,10.40
2018-07-27T21:57:21.763Z,10.10
2018-07-27T21:59:52.739Z,9.67
2018-07-27T22:02:23.618Z,10.67
2018-07-27T22:04:54.519Z,9.63
2018-07-27T22:07:25.809Z,10.10
2018-07-27T22:09:56.687Z,9.57
2018-07-27T22:12:27.698Z,9.30
2018-07-27T22:14:58.754Z,9.50
2018-07-27T22:17:29.440Z,10.53
2018-07-27T22:20:00.453Z,10.70
2018-07-27T22:22:32.164Z,10.00
2018-07-27T22:25:03.642Z,9.90
2018-07-27T22:27:34.486Z,10.27
2018-07-27T22:30:06.684Z,10.77
2018-07-27T22:32:37.328Z,10.77
2018-07-27T22:35:08.413Z,12.00
2018-07-27T22:37:40.604Z,11.20
2018-07-27T22:40:12.018Z,10.70
2018-07-27T22:42:42.685Z,10.77
2018-07-27T22:45:13.333Z,10.83
2018-07-27T22:47:43.874Z,10.90
2018-07-27T22:50:15.347Z,10.60
2018-07-27T22:52:46.435Z,13.93
2018-07-27T22:55:16.976Z,12.47
2018-07-27T22:57:47.975Z,12.30
2018-07-27T23:00:18.858Z,12.23
2018-07-27T23:02:49.298Z,10.93
2018-07-27T23:05:20.037Z,11.30
2018-07-27T23:07:51.892Z,11.03
2018-07-27T23:10:22.705Z,11.57
2018-07-27T23:12:53.423Z,10.97
2018-07-27T23:15:24.682Z,11.20
2018-07-27T23:17:55.501Z,11.90
2018-07-27T23:20:26.029Z,11.40
2018-07-27T23:22:56.483Z,11.03
2018-07-27T23:25:27.503Z,11.30
2018-07-27T23:27:58.145Z,11.43
2018-07-27T23:30:28.703Z,11.77
2018-07-27T23:32:59.933Z,11.23
2018-07-27T23:35:30.425Z,10.87
2018-07-27T23:38:01.967Z,10.93
2018-07-27T23:40:32.735Z,11.50
2018-07-27T23:43:03.368Z,11.37
2018-07-27T23:45:34.345Z,12.90
2018-07-27T23:48:05.590Z,14.43
2018-07-27T23:50:36.749Z,13.17
2018-07-27T23:53:09.140Z,14.43
2018-07-27T23:55:39.779Z,14.00
2018-07-27T23:58:10.478Z,12.70
